sensor_id;sensor_type;location;lat;lon;timestamp;pressure;altitude;pressure_sealevel;temperature;humidity
57024;BME280;42916;54.346;18.562;2023-02-03T00:01:46;100771.02;;;-2.72;100.00
57024;BME280;42916;54.346;18.562;2023-02-03T00:04:13;100772.02;;;-2.74;100.00
57024;BME280;42916;54.346;18.562;2023-02-03T00:06:40;100771.56;;;-2.77;100.00
57024;BME280;42916;54.346;18.562;2023-02-03T00:09:06;100771.98;;;-2.78;100.00
57024;BME280;42916;54.346;18.562;2023-02-03T00:11:34;100768.80;;;-2.78;100.00
57024;BME280;42916;54.346;18.562;2023-02-03T00:14:01;100767.42;;;-2.83;100.00
57024;BME280;42916;54.346;18.562;2023-02-03T00:16:28;100766.85;;;-2.88;100.00
57024;BME280;42916;54.346;18.562;2023-02-03T00:18:55;100763.95;;;-2.91;100.00
57024;BME280;42916;54.346;18.562;2023-02-03T00:21:21;100761.67;;;-2.91;100.00
57024;BME280;42916;54.346;18.562;2023-02-03T00:23:48;100754.64;;;-2.92;100.00
57024;BME280;42916;54.346;18.562;2023-02-03T00:26:15;100752.80;;;-2.91;100.00
57024;BME280;42916;54.346;18.562;2023-02-03T00:28:44;100755.41;;;-2.92;100.00
57024;BME280;42916;54.346;18.562;2023-02-03T00:31:21;100755.41;;;-2.96;100.00
57024;BME280;42916;54.346;18.562;2023-02-03T00:33:55;100746.13;;;-3.00;100.00
57024;BME280;42916;54.346;18.562;2023-02-03T00:36:24;100748.66;;;-3.05;100.00
57024;BME280;42916;54.346;18.562;2023-02-03T00:38:52;100746.81;;;-3.07;100.00
57024;BME280;42916;54.346;18.562;2023-02-03T00:41:20;100738.52;;;-3.08;100.00
57024;BME280;42916;54.346;18.562;2023-02-03T00:43:47;100727.95;;;-3.09;100.00
57024;BME280;42916;54.346;18.562;2023-02-03T00:46:15;100722.90;;;-3.08;100.00
57024;BME280;42916;54.346;18.562;2023-02-03T00:48:42;100719.63;;;-3.09;100.00
57024;BME280;42916;54.346;18.562;2023-02-03T00:51:09;100715.70;;;-3.12;100.00
57024;BME280;42916;54.346;18.562;2023-02-03T00:53:35;100716.27;;;-3.14;100.00
57024;BME280;42916;54.346;18.562;2023-02-03T00:56:02;100708.44;;;-3.17;100.00
57024;BME280;42916;54.346;18.562;2023-02-03T00:58:29;100702.67;;;-3.18;100.00
57024;BME280;42916;54.346;18.562;2023-02-03T01:00:56;100699.99;;;-3.18;100.00
57024;BME280;42916;54.346;18.562;2023-02-03T01:03:22;100700.79;;;-3.17;100.00
57024;BME280;42916;54.346;18.562;2023-02-03T01:05:49;100698.67;;;-3.15;100.00
57024;BME280;42916;54.346;18.562;2023-02-03T01:08:16;100689.02;;;-3.16;100.00
57024;BME280;42916;54.346;18.562;2023-02-03T01:10:43;100685.67;;;-3.15;100.00
57024;BME280;42916;54.346;18.562;2023-02-03T01:13:10;100682.52;;;-3.14;100.00
57024;BME280;42916;54.346;18.562;2023-02-03T01:15:37;100669.52;;;-3.13;100.00
57024;BME280;42916;54.346;18.562;2023-02-03T01:18:03;100664.86;;;-3.13;100.00
57024;BME280;42916;54.346;18.562;2023-02-03T01:20:30;100662.37;;;-3.09;100.00
57024;BME280;42916;54.346;18.562;2023-02-03T01:22:58;100657.60;;;-3.06;100.00
57024;BME280;42916;54.346;18.562;2023-02-03T01:25:25;100660.25;;;-3.02;100.00
57024;BME280;42916;54.346;18.562;2023-02-03T01:27:51;100660.69;;;-2.99;100.00
57024;BME280;42916;54.346;18.562;2023-02-03T01:30:18;100660.75;;;-2.97;100.00
57024;BME280;42916;54.346;18.562;2023-02-03T01:32:46;100658.29;;;-3.00;100.00
57024;BME280;42916;54.346;18.562;2023-02-03T01:35:13;100663.60;;;-3.02;100.00
57024;BME280;42916;54.346;18.562;2023-02-03T01:37:40;100663.23;;;-3.04;100.00
57024;BME280;42916;54.346;18.562;2023-02-03T01:40:07;100662.40;;;-3.03;100.00
57024;BME280;42916;54.346;18.562;2023-02-03T01:42:34;100659.75;;;-2.99;100.00
57024;BME280;42916;54.346;18.562;2023-02-03T01:45:01;100661.43;;;-2.96;100.00
57024;BME280;42916;54.346;18.562;2023-02-03T01:47:47;100656.58;;;-2.96;100.00
57024;BME280;42916;54.346;18.562;2023-02-03T01:50:25;100658.48;;;-2.94;100.00
57024;BME280;42916;54.346;18.562;2023-02-03T01:52:57;100656.27;;;-2.90;100.00
57024;BME280;42916;54.346;18.562;2023-02-03T01:55:39;100659.37;;;-2.89;100.00
57024;BME280;42916;54.346;18.562;2023-02-03T01:58:10;100649.59;;;-2.88;100.00
57024;BME280;42916;54.346;18.562;2023-02-03T02:00:38;100646.16;;;-2.86;100.00
57024;BME280;42916;54.346;18.562;2023-02-03T02:03:06;100645.37;;;-2.84;100.00
57024;BME280;42916;54.346;18.562;2023-02-03T02:05:42;100638.25;;;-2.80;100.00
57024;BME280;42916;54.346;18.562;2023-02-03T02:08:12;100625.95;;;-2.76;100.00
57024;BME280;42916;54.346;18.562;2023-02-03T02:10:40;100625.53;;;-2.72;100.00
57024;BME280;42916;54.346;18.562;2023-02-03T02:13:07;100617.35;;;-2.69;100.00
57024;BME280;42916;54.346;18.562;2023-02-03T02:15:57;100617.98;;;-2.67;100.00
57024;BME280;42916;54.346;18.562;2023-02-03T02:21:24;100609.04;;;-2.66;100.00
57024;BME280;42916;54.346;18.562;2023-02-03T02:24:19;100596.98;;;-2.65;100.00
57024;BME280;42916;54.346;18.562;2023-02-03T02:35:44;100577.58;;;-2.62;100.00
57024;BME280;42916;54.346;18.562;2023-02-03T02:38:37;100579.02;;;-2.62;100.00
57024;BME280;42916;54.346;18.562;2023-02-03T02:41:16;100574.17;;;-2.62;100.00
57024;BME280;42916;54.346;18.562;2023-02-03T02:43:51;100572.65;;;-2.62;100.00
57024;BME280;42916;54.346;18.562;2023-02-03T02:46:30;100567.33;;;-2.62;100.00
57024;BME280;42916;54.346;18.562;2023-02-03T02:49:07;100563.23;;;-2.62;100.00
57024;BME280;42916;54.346;18.562;2023-02-03T02:51:36;100554.77;;;-2.63;100.00
57024;BME280;42916;54.346;18.562;2023-02-03T02:54:07;100551.41;;;-2.63;100.00
57024;BME280;42916;54.346;18.562;2023-02-03T02:56:38;100551.59;;;-2.67;100.00
57024;BME280;42916;54.346;18.562;2023-02-03T02:59:07;100554.20;;;-2.68;100.00
57024;BME280;42916;54.346;18.562;2023-02-03T03:01:34;100551.05;;;-2.72;100.00
57024;BME280;42916;54.346;18.562;2023-02-03T03:04:04;100546.90;;;-2.73;100.00
57024;BME280;42916;54.346;18.562;2023-02-03T03:07:10;100542.02;;;-2.73;100.00
57024;BME280;42916;54.346;18.562;2023-02-03T03:12:15;100531.48;;;-2.71;100.00
57024;BME280;42916;54.346;18.562;2023-02-03T03:14:49;100526.05;;;-2.70;100.00
57024;BME280;42916;54.346;18.562;2023-02-03T03:17:23;100515.95;;;-2.69;100.00
57024;BME280;42916;54.346;18.562;2023-02-03T03:19:55;100512.10;;;-2.68;100.00
57024;BME280;42916;54.346;18.562;2023-02-03T03:22:28;100509.20;;;-2.66;100.00
57024;BME280;42916;54.346;18.562;2023-02-03T03:25:27;100500.35;;;-2.62;100.00
57024;BME280;42916;54.346;18.562;2023-02-03T03:27:57;100501.72;;;-2.58;100.00
57024;BME280;42916;54.346;18.562;2023-02-03T03:30:28;100500.98;;;-2.58;100.00
57024;BME280;42916;54.346;18.562;2023-02-03T03:32:58;100492.23;;;-2.59;100.00
57024;BME280;42916;54.346;18.562;2023-02-03T03:35:30;100494.59;;;-2.58;100.00
57024;BME280;42916;54.346;18.562;2023-02-03T03:38:09;100490.13;;;-2.58;100.00
57024;BME280;42916;54.346;18.562;2023-02-03T03:40:41;100491.90;;;-2.56;100.00
57024;BME280;42916;54.346;18.562;2023-02-03T03:43:21;100493.05;;;-2.57;100.00
57024;BME280;42916;54.346;18.562;2023-02-03T03:45:57;100500.85;;;-2.57;100.00
57024;BME280;42916;54.346;18.562;2023-02-03T03:48:43;100504.48;;;-2.57;100.00
57024;BME280;42916;54.346;18.562;2023-02-03T03:53:55;100490.50;;;-2.52;100.00
57024;BME280;42916;54.346;18.562;2023-02-03T03:56:27;100486.19;;;-2.48;100.00
57024;BME280;42916;54.346;18.562;2023-02-03T03:58:56;100482.23;;;-2.48;100.00
57024;BME280;42916;54.346;18.562;2023-02-03T04:01:25;100478.39;;;-2.47;100.00
57024;BME280;42916;54.346;18.562;2023-02-03T04:03:57;100479.66;;;-2.45;100.00
57024;BME280;42916;54.346;18.562;2023-02-03T04:06:25;100475.50;;;-2.46;100.00
57024;BME280;42916;54.346;18.562;2023-02-03T04:08:52;100469.88;;;-2.45;100.00
57024;BME280;42916;54.346;18.562;2023-02-03T04:11:19;100465.17;;;-2.42;100.00
57024;BME280;42916;54.346;18.562;2023-02-03T04:14:05;100459.17;;;-2.40;100.00
57024;BME280;42916;54.346;18.562;2023-02-03T04:16:32;100456.88;;;-2.37;100.00
57024;BME280;42916;54.346;18.562;2023-02-03T04:18:58;100453.44;;;-2.34;100.00
57024;BME280;42916;54.346;18.562;2023-02-03T04:21:26;100450.23;;;-2.33;100.00
57024;BME280;42916;54.346;18.562;2023-02-03T04:23:52;100447.61;;;-2.30;100.00
57024;BME280;42916;54.346;18.562;2023-02-03T04:26:22;100443.93;;;-2.29;100.00
57024;BME280;42916;54.346;18.562;2023-02-03T04:28:49;100434.02;;;-2.29;100.00
57024;BME280;42916;54.346;18.562;2023-02-03T04:31:16;100426.23;;;-2.29;100.00
57024;BME280;42916;54.346;18.562;2023-02-03T04:33:43;100429.84;;;-2.27;100.00
57024;BME280;42916;54.346;18.562;2023-02-03T04:36:10;100426.79;;;-2.23;100.00
57024;BME280;42916;54.346;18.562;2023-02-03T04:38:36;100422.63;;;-2.19;100.00
57024;BME280;42916;54.346;18.562;2023-02-03T04:41:03;100419.59;;;-2.16;100.00
57024;BME280;42916;54.346;18.562;2023-02-03T04:43:30;100410.11;;;-2.12;100.00
57024;BME280;42916;54.346;18.562;2023-02-03T04:45:59;100404.66;;;-2.10;100.00
57024;BME280;42916;54.346;18.562;2023-02-03T04:48:26;100398.39;;;-2.07;100.00
57024;BME280;42916;54.346;18.562;2023-02-03T04:50:53;100393.70;;;-2.08;100.00
57024;BME280;42916;54.346;18.562;2023-02-03T04:53:20;100389.45;;;-2.10;100.00
57024;BME280;42916;54.346;18.562;2023-02-03T04:55:47;100384.13;;;-2.12;100.00
57024;BME280;42916;54.346;18.562;2023-02-03T04:58:14;100378.19;;;-2.11;100.00
57024;BME280;42916;54.346;18.562;2023-02-03T05:00:41;100364.86;;;-2.11;100.00
57024;BME280;42916;54.346;18.562;2023-02-03T05:03:08;100356.91;;;-2.10;100.00
57024;BME280;42916;54.346;18.562;2023-02-03T05:05:34;100354.45;;;-2.09;100.00
57024;BME280;42916;54.346;18.562;2023-02-03T05:08:01;100348.12;;;-2.07;100.00
57024;BME280;42916;54.346;18.562;2023-02-03T05:10:28;100343.04;;;-2.07;100.00
57024;BME280;42916;54.346;18.562;2023-02-03T05:12:54;100337.55;;;-2.07;100.00
57024;BME280;42916;54.346;18.562;2023-02-03T05:15:21;100329.77;;;-2.10;100.00
57024;BME280;42916;54.346;18.562;2023-02-03T05:17:51;100328.24;;;-2.13;100.00
57024;BME280;42916;54.346;18.562;2023-02-03T05:20:18;100319.33;;;-2.14;100.00
57024;BME280;42916;54.346;18.562;2023-02-03T05:22:45;100318.20;;;-2.15;100.00
57024;BME280;42916;54.346;18.562;2023-02-03T05:25:12;100312.88;;;-2.15;100.00
57024;BME280;42916;54.346;18.562;2023-02-03T05:27:40;100303.13;;;-2.16;100.00
57024;BME280;42916;54.346;18.562;2023-02-03T05:30:08;100307.86;;;-2.19;100.00
57024;BME280;42916;54.346;18.562;2023-02-03T05:32:35;100302.22;;;-2.22;100.00
57024;BME280;42916;54.346;18.562;2023-02-03T05:35:02;100301.56;;;-2.27;100.00
57024;BME280;42916;54.346;18.562;2023-02-03T05:37:28;100299.28;;;-2.28;100.00
57024;BME280;42916;54.346;18.562;2023-02-03T05:39:55;100294.20;;;-2.29;100.00
57024;BME280;42916;54.346;18.562;2023-02-03T05:42:46;100283.34;;;-2.29;100.00
57024;BME280;42916;54.346;18.562;2023-02-03T05:45:14;100278.52;;;-2.27;100.00
57024;BME280;42916;54.346;18.562;2023-02-03T05:47:41;100272.49;;;-2.27;100.00
57024;BME280;42916;54.346;18.562;2023-02-03T05:50:08;100271.80;;;-2.29;100.00
57024;BME280;42916;54.346;18.562;2023-02-03T05:52:35;100271.29;;;-2.31;100.00
57024;BME280;42916;54.346;18.562;2023-02-03T05:55:02;100268.37;;;-2.33;100.00
57024;BME280;42916;54.346;18.562;2023-02-03T05:57:30;100269.07;;;-2.34;100.00
57024;BME280;42916;54.346;18.562;2023-02-03T05:59:57;100261.67;;;-2.35;100.00
57024;BME280;42916;54.346;18.562;2023-02-03T06:02:23;100256.95;;;-2.36;100.00
57024;BME280;42916;54.346;18.562;2023-02-03T06:04:50;100250.92;;;-2.36;100.00
57024;BME280;42916;54.346;18.562;2023-02-03T06:07:17;100242.34;;;-2.37;100.00
57024;BME280;42916;54.346;18.562;2023-02-03T06:09:44;100234.43;;;-2.39;100.00
57024;BME280;42916;54.346;18.562;2023-02-03T06:12:10;100235.02;;;-2.43;100.00
57024;BME280;42916;54.346;18.562;2023-02-03T06:14:37;100228.46;;;-2.46;100.00
57024;BME280;42916;54.346;18.562;2023-02-03T06:17:04;100220.48;;;-2.49;100.00
57024;BME280;42916;54.346;18.562;2023-02-03T06:19:31;100217.73;;;-2.50;100.00
57024;BME280;42916;54.346;18.562;2023-02-03T06:21:57;100211.17;;;-2.48;100.00
57024;BME280;42916;54.346;18.562;2023-02-03T06:24:24;100208.02;;;-2.46;100.00
57024;BME280;42916;54.346;18.562;2023-02-03T06:26:51;100202.55;;;-2.44;100.00
57024;BME280;42916;54.346;18.562;2023-02-03T06:29:18;100196.52;;;-2.41;100.00
57024;BME280;42916;54.346;18.562;2023-02-03T06:31:44;100188.27;;;-2.39;100.00
57024;BME280;42916;54.346;18.562;2023-02-03T06:34:11;100186.42;;;-2.40;100.00
57024;BME280;42916;54.346;18.562;2023-02-03T06:36:38;100180.32;;;-2.41;100.00
57024;BME280;42916;54.346;18.562;2023-02-03T06:39:05;100180.79;;;-2.41;100.00
57024;BME280;42916;54.346;18.562;2023-02-03T06:41:31;100176.23;;;-2.38;100.00
57024;BME280;42916;54.346;18.562;2023-02-03T06:43:58;100166.14;;;-2.37;100.00
57024;BME280;42916;54.346;18.562;2023-02-03T06:46:25;100158.98;;;-2.36;100.00
57024;BME280;42916;54.346;18.562;2023-02-03T06:48:55;100151.49;;;-2.36;100.00
57024;BME280;42916;54.346;18.562;2023-02-03T06:51:22;100144.70;;;-2.35;100.00
57024;BME280;42916;54.346;18.562;2023-02-03T06:53:50;100135.93;;;-2.37;100.00
57024;BME280;42916;54.346;18.562;2023-02-03T06:56:17;100129.17;;;-2.35;100.00
57024;BME280;42916;54.346;18.562;2023-02-03T06:58:43;100121.85;;;-2.32;100.00
57024;BME280;42916;54.346;18.562;2023-02-03T07:01:10;100113.17;;;-2.29;100.00
57024;BME280;42916;54.346;18.562;2023-02-03T07:03:37;100101.81;;;-2.29;100.00
57024;BME280;42916;54.346;18.562;2023-02-03T07:06:04;100098.00;;;-2.28;100.00
57024;BME280;42916;54.346;18.562;2023-02-03T07:08:31;100092.75;;;-2.29;100.00
57024;BME280;42916;54.346;18.562;2023-02-03T07:10:58;100084.71;;;-2.27;100.00
57024;BME280;42916;54.346;18.562;2023-02-03T07:13:24;100079.42;;;-2.24;100.00
57024;BME280;42916;54.346;18.562;2023-02-03T07:15:51;100071.92;;;-2.22;100.00
57024;BME280;42916;54.346;18.562;2023-02-03T07:18:18;100066.41;;;-2.20;100.00
57024;BME280;42916;54.346;18.562;2023-02-03T07:20:50;100066.38;;;-2.20;100.00
57024;BME280;42916;54.346;18.562;2023-02-03T07:23:18;100063.11;;;-2.20;100.00
57024;BME280;42916;54.346;18.562;2023-02-03T07:25:44;100059.25;;;-2.17;100.00
57024;BME280;42916;54.346;18.562;2023-02-03T07:28:11;100056.94;;;-2.13;100.00
57024;BME280;42916;54.346;18.562;2023-02-03T07:30:38;100057.08;;;-2.09;100.00
57024;BME280;42916;54.346;18.562;2023-02-03T07:33:05;100053.85;;;-2.06;100.00
57024;BME280;42916;54.346;18.562;2023-02-03T07:35:33;100054.91;;;-2.03;100.00
57024;BME280;42916;54.346;18.562;2023-02-03T07:38:00;100046.70;;;-2.01;100.00
57024;BME280;42916;54.346;18.562;2023-02-03T07:40:27;100039.54;;;-2.00;100.00
57024;BME280;42916;54.346;18.562;2023-02-03T07:42:54;100034.14;;;-1.97;100.00
57024;BME280;42916;54.346;18.562;2023-02-03T07:45:20;100024.92;;;-1.91;100.00
57024;BME280;42916;54.346;18.562;2023-02-03T07:47:50;100024.11;;;-1.86;100.00
57024;BME280;42916;54.346;18.562;2023-02-03T07:50:17;100017.73;;;-1.84;100.00
57024;BME280;42916;54.346;18.562;2023-02-03T07:52:44;100011.55;;;-1.82;100.00
57024;BME280;42916;54.346;18.562;2023-02-03T07:55:10;100002.16;;;-1.81;100.00
57024;BME280;42916;54.346;18.562;2023-02-03T07:57:37;99996.40;;;-1.80;100.00
57024;BME280;42916;54.346;18.562;2023-02-03T08:00:11;99988.51;;;-1.78;100.00
57024;BME280;42916;54.346;18.562;2023-02-03T08:02:41;99993.06;;;-1.74;100.00
57024;BME280;42916;54.346;18.562;2023-02-03T08:05:09;99981.55;;;-1.70;100.00
57024;BME280;42916;54.346;18.562;2023-02-03T08:07:36;99973.88;;;-1.67;100.00
57024;BME280;42916;54.346;18.562;2023-02-03T08:10:04;99970.66;;;-1.65;100.00
57024;BME280;42916;54.346;18.562;2023-02-03T08:12:31;99960.23;;;-1.63;100.00
57024;BME280;42916;54.346;18.562;2023-02-03T08:14:58;99949.38;;;-1.60;100.00
57024;BME280;42916;54.346;18.562;2023-02-03T08:17:25;99940.48;;;-1.54;100.00
57024;BME280;42916;54.346;18.562;2023-02-03T08:19:51;99934.35;;;-1.47;100.00
57024;BME280;42916;54.346;18.562;2023-02-03T08:22:18;99934.20;;;-1.42;100.00
57024;BME280;42916;54.346;18.562;2023-02-03T08:24:45;99922.09;;;-1.38;100.00
57024;BME280;42916;54.346;18.562;2023-02-03T08:27:14;99922.60;;;-1.33;100.00
57024;BME280;42916;54.346;18.562;2023-02-03T08:29:42;99919.88;;;-1.30;100.00
57024;BME280;42916;54.346;18.562;2023-02-03T08:32:10;99917.30;;;-1.25;100.00
57024;BME280;42916;54.346;18.562;2023-02-03T08:34:37;99913.70;;;-1.20;100.00
57024;BME280;42916;54.346;18.562;2023-02-03T08:37:04;99908.70;;;-1.16;100.00
57024;BME280;42916;54.346;18.562;2023-02-03T08:39:32;99897.31;;;-1.11;100.00
57024;BME280;42916;54.346;18.562;2023-02-03T08:42:00;99894.39;;;-1.08;100.00
57024;BME280;42916;54.346;18.562;2023-02-03T08:44:30;99888.24;;;-1.05;100.00
57024;BME280;42916;54.346;18.562;2023-02-03T08:46:59;99886.37;;;-1.03;100.00
57024;BME280;42916;54.346;18.562;2023-02-03T08:49:27;99886.21;;;-0.99;100.00
57024;BME280;42916;54.346;18.562;2023-02-03T08:51:55;99878.50;;;-0.93;100.00
57024;BME280;42916;54.346;18.562;2023-02-03T08:54:23;99870.98;;;-0.88;100.00
57024;BME280;42916;54.346;18.562;2023-02-03T08:56:51;99863.48;;;-0.86;100.00
57024;BME280;42916;54.346;18.562;2023-02-03T08:59:17;99857.02;;;-0.82;100.00
57024;BME280;42916;54.346;18.562;2023-02-03T09:01:44;99848.48;;;-0.80;100.00
57024;BME280;42916;54.346;18.562;2023-02-03T09:04:15;99834.24;;;-0.78;100.00
57024;BME280;42916;54.346;18.562;2023-02-03T09:06:51;99822.70;;;-0.78;100.00
57024;BME280;42916;54.346;18.562;2023-02-03T09:09:20;99815.45;;;-0.79;100.00
57024;BME280;42916;54.346;18.562;2023-02-03T09:11:47;99809.09;;;-0.78;100.00
57024;BME280;42916;54.346;18.562;2023-02-03T09:14:14;99805.48;;;-0.78;100.00
57024;BME280;42916;54.346;18.562;2023-02-03T09:16:41;99802.29;;;-0.73;100.00
57024;BME280;42916;54.346;18.562;2023-02-03T09:19:08;99795.58;;;-0.71;100.00
57024;BME280;42916;54.346;18.562;2023-02-03T09:21:34;99791.39;;;-0.71;100.00
57024;BME280;42916;54.346;18.562;2023-02-03T09:24:02;99785.71;;;-0.71;100.00
57024;BME280;42916;54.346;18.562;2023-02-03T09:26:30;99784.80;;;-0.71;100.00
57024;BME280;42916;54.346;18.562;2023-02-03T09:28:56;99776.42;;;-0.70;100.00
57024;BME280;42916;54.346;18.562;2023-02-03T09:31:23;99769.10;;;-0.66;100.00
57024;BME280;42916;54.346;18.562;2023-02-03T09:33:50;99762.55;;;-0.64;100.00
57024;BME280;42916;54.346;18.562;2023-02-03T09:36:17;99752.35;;;-0.64;100.00
57024;BME280;42916;54.346;18.562;2023-02-03T09:38:43;99742.27;;;-0.64;100.00
57024;BME280;42916;54.346;18.562;2023-02-03T09:44:21;99726.77;;;-0.69;100.00
57024;BME280;42916;54.346;18.562;2023-02-03T09:46:55;99718.09;;;-0.68;100.00
57024;BME280;42916;54.346;18.562;2023-02-03T09:49:51;99704.63;;;-0.67;100.00
57024;BME280;42916;54.346;18.562;2023-02-03T09:52:24;99682.89;;;-0.64;100.00
57024;BME280;42916;54.346;18.562;2023-02-03T09:57:41;99677.38;;;-0.65;100.00
57024;BME280;42916;54.346;18.562;2023-02-03T10:00:20;99673.59;;;-0.68;100.00
57024;BME280;42916;54.346;18.562;2023-02-03T10:02:53;99663.67;;;-0.72;100.00
57024;BME280;42916;54.346;18.562;2023-02-03T10:19:02;99616.52;;;-0.80;100.00
57024;BME280;42916;54.346;18.562;2023-02-03T10:21:59;99611.55;;;-0.81;100.00
57024;BME280;42916;54.346;18.562;2023-02-03T10:25:04;99607.21;;;-0.82;100.00
57024;BME280;42916;54.346;18.562;2023-02-03T10:27:30;99591.61;;;-0.84;100.00
57024;BME280;42916;54.346;18.562;2023-02-03T10:32:43;99570.27;;;-0.89;100.00
57024;BME280;42916;54.346;18.562;2023-02-03T10:35:13;99562.21;;;-0.92;100.00
57024;BME280;42916;54.346;18.562;2023-02-03T10:37:43;99555.95;;;-0.96;100.00
57024;BME280;42916;54.346;18.562;2023-02-03T10:40:13;99552.10;;;-0.98;100.00
57024;BME280;42916;54.346;18.562;2023-02-03T10:42:41;99540.27;;;-0.98;100.00
57024;BME280;42916;54.346;18.562;2023-02-03T10:45:30;99526.70;;;-0.98;100.00
57024;BME280;42916;54.346;18.562;2023-02-03T10:47:59;99514.41;;;-1.02;100.00
57024;BME280;42916;54.346;18.562;2023-02-03T10:50:26;99505.43;;;-1.04;100.00
57024;BME280;42916;54.346;18.562;2023-02-03T10:53:19;99500.20;;;-1.06;100.00
57024;BME280;42916;54.346;18.562;2023-02-03T10:55:51;99483.86;;;-1.05;100.00
57024;BME280;42916;54.346;18.562;2023-02-03T10:58:28;99475.11;;;-1.05;100.00
57024;BME280;42916;54.346;18.562;2023-02-03T11:01:03;99465.08;;;-1.04;100.00
57024;BME280;42916;54.346;18.562;2023-02-03T11:03:31;99449.33;;;-1.02;100.00
57024;BME280;42916;54.346;18.562;2023-02-03T11:08:32;99430.14;;;-0.96;100.00
57024;BME280;42916;54.346;18.562;2023-02-03T11:11:29;99416.14;;;-0.95;100.00
57024;BME280;42916;54.346;18.562;2023-02-03T11:16:34;99388.34;;;-0.87;100.00
57024;BME280;42916;54.346;18.562;2023-02-03T11:19:03;99384.32;;;-0.83;100.00
57024;BME280;42916;54.346;18.562;2023-02-03T11:24:09;99369.69;;;-0.80;100.00
57024;BME280;42916;54.346;18.562;2023-02-03T11:26:47;99368.25;;;-0.80;100.00
57024;BME280;42916;54.346;18.562;2023-02-03T11:29:26;99361.92;;;-0.81;100.00
57024;BME280;42916;54.346;18.562;2023-02-03T11:31:59;99353.60;;;-0.82;100.00
57024;BME280;42916;54.346;18.562;2023-02-03T11:34:30;99349.48;;;-0.85;100.00
57024;BME280;42916;54.346;18.562;2023-02-03T11:37:30;99343.94;;;-0.87;100.00
57024;BME280;42916;54.346;18.562;2023-02-03T11:42:35;99329.86;;;-0.88;100.00
57024;BME280;42916;54.346;18.562;2023-02-03T11:45:24;99317.78;;;-0.90;100.00
57024;BME280;42916;54.346;18.562;2023-02-03T11:48:30;99310.09;;;-0.90;100.00
57024;BME280;42916;54.346;18.562;2023-02-03T12:13:09;99274.33;;;-0.97;100.00
57024;BME280;42916;54.346;18.562;2023-02-03T12:21:45;99269.45;;;-0.99;100.00
57024;BME280;42916;54.346;18.562;2023-02-03T12:27:24;99265.80;;;-0.99;100.00
57024;BME280;42916;54.346;18.562;2023-02-03T12:32:44;99261.19;;;-0.98;100.00
57024;BME280;42916;54.346;18.562;2023-02-03T12:35:19;99264.72;;;-0.97;100.00
57024;BME280;42916;54.346;18.562;2023-02-03T12:37:54;99271.04;;;-0.95;100.00
57024;BME280;42916;54.346;18.562;2023-02-03T12:41:06;99266.73;;;-0.91;100.00
57024;BME280;42916;54.346;18.562;2023-02-03T12:45:52;99267.75;;;-0.90;100.00
57024;BME280;42916;54.346;18.562;2023-02-03T12:48:35;99260.77;;;-0.88;100.00
57024;BME280;42916;54.346;18.562;2023-02-03T12:51:10;99263.55;;;-0.88;100.00
57024;BME280;42916;54.346;18.562;2023-02-03T12:53:43;99260.31;;;-0.85;100.00
57024;BME280;42916;54.346;18.562;2023-02-03T12:56:15;99262.32;;;-0.85;100.00
57024;BME280;42916;54.346;18.562;2023-02-03T12:59:17;99257.43;;;-0.86;100.00
57024;BME280;42916;54.346;18.562;2023-02-03T13:01:52;99250.70;;;-0.88;100.00
57024;BME280;42916;54.346;18.562;2023-02-03T13:04:35;99244.61;;;-0.86;100.00
57024;BME280;42916;54.346;18.562;2023-02-03T13:08:30;99243.88;;;-0.85;100.00
57024;BME280;42916;54.346;18.562;2023-02-03T13:10:43;99234.80;;;-0.86;100.00
57024;BME280;42916;54.346;18.562;2023-02-03T13:13:20;99232.46;;;-0.88;100.00
57024;BME280;42916;54.346;18.562;2023-02-03T13:15:49;99233.62;;;-0.89;100.00
57024;BME280;42916;54.346;18.562;2023-02-03T13:18:25;99238.98;;;-0.87;100.00
57024;BME280;42916;54.346;18.562;2023-02-03T13:20:55;99236.44;;;-0.86;100.00
57024;BME280;42916;54.346;18.562;2023-02-03T13:23:22;99228.34;;;-0.86;100.00
57024;BME280;42916;54.346;18.562;2023-02-03T13:40:05;99213.72;;;-0.84;100.00
57024;BME280;42916;54.346;18.562;2023-02-03T13:42:42;99217.23;;;-0.82;100.00
57024;BME280;42916;54.346;18.562;2023-02-03T13:47:53;99208.50;;;-0.81;100.00
57024;BME280;42916;54.346;18.562;2023-02-03T13:50:28;99208.86;;;-0.79;100.00
57024;BME280;42916;54.346;18.562;2023-02-03T13:55:39;99202.91;;;-0.79;100.00
57024;BME280;42916;54.346;18.562;2023-02-03T13:58:19;99198.38;;;-0.78;100.00
57024;BME280;42916;54.346;18.562;2023-02-03T14:03:18;99201.33;;;-0.77;100.00
57024;BME280;42916;54.346;18.562;2023-02-03T14:06:06;99204.88;;;-0.78;100.00
57024;BME280;42916;54.346;18.562;2023-02-03T14:19:10;99201.71;;;-0.81;100.00
57024;BME280;42916;54.346;18.562;2023-02-03T14:24:17;99193.88;;;-0.85;100.00
57024;BME280;42916;54.346;18.562;2023-02-03T14:26:53;99195.29;;;-0.87;100.00
57024;BME280;42916;54.346;18.562;2023-02-03T14:29:30;99199.23;;;-0.89;100.00
57024;BME280;42916;54.346;18.562;2023-02-03T14:54:02;99224.74;;;-0.96;100.00
57024;BME280;42916;54.346;18.562;2023-02-03T14:56:37;99228.70;;;-0.96;100.00
57024;BME280;42916;54.346;18.562;2023-02-03T14:59:46;99236.23;;;-0.96;100.00
57024;BME280;42916;54.346;18.562;2023-02-03T15:02:17;99236.55;;;-0.96;100.00
57024;BME280;42916;54.346;18.562;2023-02-03T15:04:46;99245.09;;;-0.96;100.00
57024;BME280;42916;54.346;18.562;2023-02-03T15:07:40;99250.61;;;-0.97;100.00
57024;BME280;42916;54.346;18.562;2023-02-03T15:10:19;99265.63;;;-0.98;100.00
57024;BME280;42916;54.346;18.562;2023-02-03T15:12:51;99275.23;;;-0.97;100.00
57024;BME280;42916;54.346;18.562;2023-02-03T15:15:27;99278.19;;;-0.96;100.00
57024;BME280;42916;54.346;18.562;2023-02-03T15:17:56;99281.80;;;-0.95;100.00